Time;durP1;ratioP1;P1;durP2;ratioP2;P2;SDS_P1;SDS_P2;PMS_P1;PMS_P2;Temp;Humidity;BMP_temperature;BMP_pressure;BME280_temperature;BME280_humidity;BME280_pressure;Samples;Min_cycle;Max_cycle;Signal;HPM_P1;HPM_P2
2021/04/20 00:00:07;;;;;;;9.90;6.82;;;23.10;39.70;;;;;;6202604;28;81010;-68
2021/04/20 00:03:08;;;;;;;7.75;6.03;;;23.20;39.50;;;;;;6204757;28;84164;-69
2021/04/20 00:06:09;;;;;;;11.63;7.22;;;23.20;39.40;;;;;;6227725;27;81180;-68
2021/04/20 00:09:09;;;;;;;8.73;6.32;;;23.20;39.60;;;;;;6229871;27;80431;-68
2021/04/20 00:12:10;;;;;;;11.45;6.90;;;23.20;39.50;;;;;;6215057;28;80812;-68
2021/04/20 00:15:10;;;;;;;10.30;6.72;;;23.20;39.10;;;;;;6203322;28;80484;-67
2021/04/20 00:18:11;;;;;;;12.23;7.78;;;23.20;39.60;;;;;;6201831;28;80622;-67
2021/04/20 00:21:11;;;;;;;12.23;7.70;;;23.20;39.20;;;;;;6201742;27;80871;-67
2021/04/20 00:24:12;;;;;;;10.60;7.50;;;23.10;39.00;;;;;;6202369;28;80902;-68
2021/04/20 00:27:13;;;;;;;11.93;7.72;;;23.10;39.20;;;;;;6204409;28;90961;-68
2021/04/20 00:30:13;;;;;;;11.50;7.57;;;23.10;38.70;;;;;;6198933;28;80948;-68
2021/04/20 00:33:14;;;;;;;8.95;6.57;;;23.10;39.00;;;;;;6201838;28;80549;-68
2021/04/20 00:36:15;;;;;;;11.25;7.13;;;23.10;38.90;;;;;;6196275;28;80115;-68
2021/04/20 00:39:16;;;;;;;9.23;7.05;;;23.10;38.60;;;;;;6219695;27;80485;-68
2021/04/20 00:42:16;;;;;;;10.13;7.45;;;23.10;38.80;;;;;;6216047;28;80930;-68
2021/04/20 00:45:17;;;;;;;11.00;7.60;;;23.10;38.50;;;;;;6219008;28;80684;-68
2021/04/20 00:48:17;;;;;;;11.15;7.82;;;23.10;39.00;;;;;;6204737;28;80827;-67
2021/04/20 00:51:18;;;;;;;10.57;7.07;;;23.10;38.70;;;;;;6206171;28;80946;-68
2021/04/20 00:54:19;;;;;;;8.38;6.57;;;23.10;38.50;;;;;;6209153;28;82908;-67
2021/04/20 00:57:20;;;;;;;9.43;6.93;;;23.10;38.60;;;;;;6201325;28;80083;-68
2021/04/20 01:00:21;;;;;;;9.88;6.75;;;23.10;39.00;;;;;;6202732;28;80554;-67
2021/04/20 01:03:21;;;;;;;8.95;6.95;;;23.10;38.90;;;;;;6229318;28;80198;-67
2021/04/20 01:06:22;;;;;;;9.90;7.07;;;23.10;38.70;;;;;;6204917;28;80359;-67
2021/04/20 01:09:22;;;;;;;10.50;7.40;;;23.10;38.40;;;;;;6218652;27;80370;-67
2021/04/20 01:12:23;;;;;;;8.98;6.78;;;23.00;38.40;;;;;;6205078;28;80416;-67
2021/04/20 01:15:23;;;;;;;10.50;8.23;;;23.10;38.70;;;;;;6220001;28;82613;-67
2021/04/20 01:18:24;;;;;;;10.25;7.40;;;23.10;38.70;;;;;;6205878;28;84412;-68
2021/04/20 01:21:25;;;;;;;10.75;7.38;;;23.10;38.60;;;;;;6209505;28;81753;-67
2021/04/20 01:24:27;;;;;;;9.35;6.90;;;23.10;38.40;;;;;;6221664;27;80114;-67
2021/04/20 01:27:27;;;;;;;10.82;7.68;;;23.10;38.50;;;;;;6202111;27;80572;-67
2021/04/20 01:30:28;;;;;;;11.00;7.50;;;23.10;38.40;;;;;;6205948;27;83277;-67
2021/04/20 01:33:28;;;;;;;9.90;7.57;;;23.10;38.90;;;;;;6200129;28;80536;-68
2021/04/20 01:36:29;;;;;;;10.60;7.30;;;23.00;38.90;;;;;;6191621;28;80700;-68
2021/04/20 01:39:29;;;;;;;9.80;7.40;;;23.10;38.50;;;;;;6203443;27;80067;-68
2021/04/20 01:42:30;;;;;;;10.50;7.25;;;23.00;38.20;;;;;;6211446;27;80850;-67
2021/04/20 01:45:31;;;;;;;9.93;7.55;;;23.00;38.50;;;;;;6196307;28;80588;-67
2021/04/20 01:48:32;;;;;;;11.60;7.75;;;23.00;38.50;;;;;;6210822;28;80842;-67
2021/04/20 01:51:33;;;;;;;10.93;7.88;;;23.00;38.40;;;;;;6216489;28;80544;-67
2021/04/20 01:54:33;;;;;;;9.00;6.45;;;23.10;38.50;;;;;;6202284;28;81616;-67
2021/04/20 01:57:34;;;;;;;11.48;7.85;;;23.00;38.20;;;;;;6201833;28;80908;-67
2021/04/20 02:00:34;;;;;;;11.10;7.40;;;23.00;38.20;;;;;;6214043;28;83289;-66
2021/04/20 02:03:35;;;;;;;12.98;8.43;;;23.00;38.40;;;;;;6211864;28;82072;-66
2021/04/20 02:06:35;;;;;;;14.05;8.82;;;23.00;38.50;;;;;;6199313;28;80790;-66
2021/04/20 02:09:36;;;;;;;11.18;8.00;;;23.00;38.40;;;;;;6205365;28;80840;-66
2021/04/20 02:12:37;;;;;;;12.65;7.95;;;23.10;38.40;;;;;;6198669;28;81908;-66
2021/04/20 02:15:37;;;;;;;11.40;8.00;;;23.00;38.40;;;;;;6194381;28;80441;-66
2021/04/20 02:18:38;;;;;;;10.75;8.43;;;23.00;38.40;;;;;;6190890;27;80503;-67
2021/04/20 02:21:39;;;;;;;13.02;9.35;;;23.00;38.80;;;;;;6197514;28;80986;-67
2021/04/20 02:24:39;;;;;;;13.70;8.93;;;23.00;38.30;;;;;;6203732;28;80823;-66
2021/04/20 02:27:40;;;;;;;13.02;9.65;;;23.00;38.60;;;;;;6193401;27;81063;-67
2021/04/20 02:30:42;;;;;;;15.70;10.23;;;23.00;38.60;;;;;;6196110;28;82749;-66
2021/04/20 02:33:43;;;;;;;15.38;10.15;;;23.00;38.80;;;;;;6200058;28;83114;-66
2021/04/20 02:36:43;;;;;;;14.68;10.02;;;23.00;38.60;;;;;;6212744;27;82918;-67
2021/04/20 02:39:44;;;;;;;15.65;10.93;;;23.00;38.80;;;;;;6212973;27;83265;-67
2021/04/20 02:42:45;;;;;;;15.68;10.20;;;23.10;38.60;;;;;;6224014;28;83507;-66
2021/04/20 02:45:45;;;;;;;15.68;10.65;;;23.00;38.90;;;;;;6199179;28;84178;-67
2021/04/20 02:48:46;;;;;;;15.95;10.90;;;23.00;38.90;;;;;;6210170;28;83509;-67
2021/04/20 02:51:46;;;;;;;19.63;12.45;;;23.00;38.60;;;;;;6215849;28;83452;-65
2021/04/20 02:54:47;;;;;;;16.60;11.45;;;23.00;38.70;;;;;;6203230;27;90179;-67
2021/04/20 02:57:47;;;;;;;20.10;13.32;;;23.00;39.00;;;;;;6156828;28;86772;-67
2021/04/20 03:00:48;;;;;;;21.27;13.43;;;23.00;38.80;;;;;;6201211;28;84542;-66
2021/04/20 03:03:49;;;;;;;22.27;13.88;;;23.00;38.90;;;;;;6202277;28;83802;-66
2021/04/20 03:06:49;;;;;;;20.15;13.65;;;23.00;39.10;;;;;;6206278;28;84023;-66
2021/04/20 03:09:50;;;;;;;23.48;14.27;;;23.00;39.00;;;;;;6213770;28;83487;-66
2021/04/20 03:12:50;;;;;;;24.80;15.23;;;23.00;38.90;;;;;;6185278;28;83681;-66
2021/04/20 03:15:51;;;;;;;23.27;14.52;;;23.00;38.80;;;;;;6218943;27;83241;-66
2021/04/20 03:18:51;;;;;;;24.77;15.82;;;23.00;39.00;;;;;;6189249;28;83974;-67
2021/04/20 03:21:52;;;;;;;24.10;15.68;;;23.00;39.50;;;;;;6196252;28;83124;-67
2021/04/20 03:24:52;;;;;;;22.00;15.05;;;23.00;39.60;;;;;;6193327;28;83103;-66
2021/04/20 03:27:53;;;;;;;23.50;14.60;;;23.00;38.00;;;;;;6200983;28;83499;-67
2021/04/20 03:30:54;;;;;;;27.52;17.50;;;23.10;37.90;;;;;;6209811;28;83281;-66
2021/04/20 03:33:55;;;;;;;27.63;18.27;;;23.00;37.90;;;;;;6208311;28;82905;-66
2021/04/20 03:36:55;;;;;;;26.38;16.42;;;23.00;38.00;;;;;;6199024;28;83422;-66
2021/04/20 03:39:56;;;;;;;29.67;17.48;;;23.00;37.90;;;;;;6211908;28;83261;-66
2021/04/20 03:42:56;;;;;;;31.25;18.48;;;23.00;37.90;;;;;;6213489;27;83054;-66
2021/04/20 03:45:57;;;;;;;28.85;18.42;;;23.00;37.90;;;;;;6204303;28;83007;-66
2021/04/20 03:48:57;;;;;;;27.05;17.40;;;23.00;38.00;;;;;;6219333;27;83805;-66
2021/04/20 03:51:58;;;;;;;30.08;18.42;;;23.00;38.00;;;;;;6207491;28;83458;-67
2021/04/20 03:54:59;;;;;;;28.05;17.10;;;23.00;38.00;;;;;;6211122;28;83022;-67
2021/04/20 03:57:59;;;;;;;29.48;17.88;;;23.10;38.10;;;;;;6213314;27;83592;-67
2021/04/20 04:01:00;;;;;;;30.30;17.48;;;23.00;38.10;;;;;;6208291;27;83146;-66
2021/04/20 04:04:00;;;;;;;28.30;17.42;;;23.10;38.20;;;;;;6217735;28;83280;-67
2021/04/20 04:07:01;;;;;;;30.70;18.38;;;23.10;38.10;;;;;;6201048;27;83565;-65
2021/04/20 04:10:01;;;;;;;28.73;16.40;;;23.10;38.20;;;;;;6209229;28;83226;-68
2021/04/20 04:13:02;;;;;;;29.52;18.27;;;23.10;38.60;;;;;;6202364;28;83293;-65
2021/04/20 04:16:03;;;;;;;26.15;16.70;;;23.10;38.80;;;;;;6206325;28;83930;-66
2021/04/20 04:19:03;;;;;;;28.65;17.38;;;23.10;38.80;;;;;;6202006;27;83768;-66
2021/04/20 04:22:04;;;;;;;25.52;16.83;;;23.10;39.10;;;;;;6220185;28;83667;-67
2021/04/20 04:25:04;;;;;;;30.50;17.48;;;23.10;39.30;;;;;;6215953;27;83485;-66
2021/04/20 04:28:05;;;;;;;26.77;15.00;;;23.20;39.10;;;;;;6226876;28;83382;-64
2021/04/20 04:31:06;;;;;;;21.50;13.00;;;23.20;39.40;;;;;;6227733;27;83474;-65
2021/04/20 04:34:06;;;;;;;16.73;10.13;;;23.20;39.50;;;;;;6224744;27;84124;-66
2021/04/20 04:37:07;;;;;;;14.77;9.40;;;23.10;39.70;;;;;;6224134;28;84310;-66
2021/04/20 04:40:07;;;;;;;14.93;9.55;;;23.20;39.70;;;;;;6238820;28;84056;-66
2021/04/20 04:43:08;;;;;;;15.50;8.70;;;23.20;39.90;;;;;;6212613;28;80212;-66
2021/04/20 04:46:08;;;;;;;13.98;8.45;;;23.20;39.80;;;;;;6207083;28;80443;-66
2021/04/20 04:49:09;;;;;;;11.27;7.90;;;23.20;39.70;;;;;;6204818;28;82134;-66
2021/04/20 04:52:09;;;;;;;11.70;7.55;;;23.20;39.70;;;;;;6207695;28;81390;-66
2021/04/20 04:55:10;;;;;;;12.40;7.10;;;23.10;39.80;;;;;;6205392;28;80480;-66
2021/04/20 04:58:10;;;;;;;13.70;8.27;;;23.20;39.80;;;;;;6201255;27;80475;-68
2021/04/20 05:01:11;;;;;;;11.35;7.15;;;23.10;40.00;;;;;;6210551;28;80727;-68
2021/04/20 05:04:12;;;;;;;13.88;8.73;;;23.20;40.60;;;;;;6207874;27;80853;-68
2021/04/20 05:07:12;;;;;;;13.02;8.23;;;23.20;41.00;;;;;;6205569;28;83059;-68
2021/04/20 05:10:13;;;;;;;13.35;8.63;;;23.20;41.10;;;;;;6195317;28;81094;-69
2021/04/20 05:13:14;;;;;;;14.90;9.63;;;23.20;41.30;;;;;;6202930;28;81515;-67
2021/04/20 05:16:14;;;;;;;14.65;8.63;;;23.20;41.30;;;;;;6208258;27;81654;-68
2021/04/20 05:19:15;;;;;;;13.57;9.07;;;23.20;41.70;;;;;;6202474;27;80967;-66
2021/04/20 05:22:15;;;;;;;16.23;9.82;;;23.20;41.90;;;;;;6205201;27;80431;-67
2021/04/20 05:25:16;;;;;;;13.18;9.00;;;23.20;42.10;;;;;;6199406;27;81213;-67
2021/04/20 05:28:16;;;;;;;13.43;8.55;;;23.30;42.20;;;;;;6198779;28;80616;-64
2021/04/20 05:31:17;;;;;;;11.98;7.57;;;23.30;41.90;;;;;;6191228;28;80681;-64
2021/04/20 05:34:17;;;;;;;13.35;8.10;;;23.30;41.60;;;;;;6221014;28;81616;-67
2021/04/20 05:37:18;;;;;;;13.48;8.02;;;23.30;41.30;;;;;;6201341;27;80374;-66
2021/04/20 05:40:18;;;;;;;11.45;7.20;;;23.30;41.70;;;;;;6199833;27;80301;-68
2021/04/20 05:43:19;;;;;;;11.77;7.68;;;23.30;41.90;;;;;;6190542;28;81401;-66
2021/04/20 05:46:19;;;;;;;11.70;7.75;;;23.30;41.50;;;;;;6203952;28;81859;-68
2021/04/20 05:49:20;;;;;;;12.20;6.85;;;23.30;41.30;;;;;;6212243;28;83364;-64
2021/04/20 05:52:21;;;;;;;11.52;7.70;;;23.30;41.10;;;;;;6233358;27;80482;-63
2021/04/20 05:55:21;;;;;;;14.73;7.60;;;23.30;41.00;;;;;;6193963;28;80316;-63
2021/04/20 05:58:22;;;;;;;10.80;6.97;;;23.40;40.80;;;;;;6199392;28;80437;-63
2021/04/20 06:01:22;;;;;;;10.93;7.05;;;23.40;40.70;;;;;;6204215;28;80603;-63
2021/04/20 06:04:23;;;;;;;11.93;7.38;;;23.30;40.60;;;;;;6191685;28;81790;-64
2021/04/20 06:07:23;;;;;;;16.50;8.20;;;23.30;40.40;;;;;;6202027;28;83304;-63
2021/04/20 06:10:24;;;;;;;13.95;7.75;;;23.30;40.30;;;;;;6220922;28;81514;-63
2021/04/20 06:13:26;;;;;;;13.27;7.85;;;23.30;40.80;;;;;;6198474;28;80445;-66
2021/04/20 06:16:27;;;;;;;16.42;8.95;;;23.40;40.30;;;;;;6206598;28;83011;-66
2021/04/20 06:19:27;;;;;;;16.50;8.48;;;23.40;40.60;;;;;;6210753;28;81069;-68
2021/04/20 06:22:28;;;;;;;14.30;8.02;;;23.40;40.40;;;;;;6212437;28;80609;-63
2021/04/20 06:25:28;;;;;;;13.23;8.85;;;23.40;40.70;;;;;;6206539;28;81260;-62
2021/04/20 06:28:29;;;;;;;14.75;8.93;;;23.40;40.40;;;;;;6218558;28;80669;-65
2021/04/20 06:31:30;;;;;;;14.00;8.55;;;23.40;40.20;;;;;;6201527;28;83017;-63
2021/04/20 06:34:30;;;;;;;15.85;7.93;;;23.40;40.10;;;;;;6220982;28;80652;-63
2021/04/20 06:37:31;;;;;;;13.95;8.10;;;23.30;40.20;;;;;;6207172;28;80726;-63
2021/04/20 06:40:31;;;;;;;16.70;8.80;;;23.30;40.60;;;;;;6200417;28;80456;-63
2021/04/20 06:43:32;;;;;;;15.80;8.80;;;23.40;40.50;;;;;;6217062;28;80939;-64
2021/04/20 06:46:32;;;;;;;13.95;8.88;;;23.30;40.40;;;;;;6213646;28;83356;-63
2021/04/20 06:49:33;;;;;;;13.05;7.50;;;23.30;40.60;;;;;;6217345;27;81597;-63
2021/04/20 06:52:33;;;;;;;12.23;6.63;;;23.30;40.90;;;;;;6222845;28;80209;-63
2021/04/20 06:55:34;;;;;;;15.55;7.82;;;23.30;40.80;;;;;;6238353;28;81286;-64
2021/04/20 06:58:34;;;;;;;13.70;7.20;;;23.30;40.90;;;;;;6199767;27;81523;-64
2021/04/20 07:01:35;;;;;;;12.70;7.10;;;23.40;40.60;;;;;;6225225;27;82344;-63
2021/04/20 07:04:35;;;;;;;11.77;7.78;;;23.40;40.60;;;;;;6209545;28;80515;-63
2021/04/20 07:07:36;;;;;;;12.55;7.22;;;23.30;40.60;;;;;;6207990;27;80902;-64
2021/04/20 07:10:36;;;;;;;12.68;7.47;;;23.30;40.60;;;;;;6208969;27;80730;-64
2021/04/20 07:13:37;;;;;;;10.00;6.43;;;23.40;40.80;;;;;;6217752;28;80694;-64
2021/04/20 07:16:38;;;;;;;10.43;6.97;;;23.40;40.60;;;;;;6214353;27;80665;-63
2021/04/20 07:19:38;;;;;;;14.18;7.55;;;23.30;40.90;;;;;;6228833;28;81617;-64
2021/04/20 07:22:39;;;;;;;15.05;8.13;;;23.40;40.70;;;;;;6224027;27;80749;-64
2021/04/20 07:25:40;;;;;;;14.57;8.77;;;23.40;41.00;;;;;;6228340;27;81761;-63
2021/04/20 07:28:40;;;;;;;13.68;8.57;;;23.50;41.00;;;;;;6218133;27;80863;-64
2021/04/20 07:31:41;;;;;;;16.67;9.00;;;23.50;41.10;;;;;;6211229;27;81644;-64
2021/04/20 07:34:41;;;;;;;14.80;9.70;;;23.50;41.20;;;;;;6210000;28;81752;-64
2021/04/20 07:37:42;;;;;;;16.52;9.75;;;23.50;41.20;;;;;;6230175;28;81469;-65
2021/04/20 07:40:42;;;;;;;18.80;10.88;;;23.50;41.20;;;;;;6229301;28;80604;-64
2021/04/20 07:43:43;;;;;;;20.67;11.40;;;23.50;41.20;;;;;;6225669;27;83045;-64
2021/04/20 07:46:43;;;;;;;16.83;10.23;;;23.60;41.60;;;;;;6210679;28;85811;-64
2021/04/20 07:49:44;;;;;;;20.17;10.90;;;23.60;41.30;;;;;;6223451;28;84317;-65
2021/04/20 07:52:44;;;;;;;17.35;10.80;;;23.60;41.10;;;;;;6212371;27;83972;-64
2021/04/20 07:55:46;;;;;;;18.02;10.43;;;23.60;40.90;;;;;;6226096;27;82979;-64
2021/04/20 07:58:46;;;;;;;17.55;10.35;;;23.60;41.30;;;;;;6215762;28;83054;-65
2021/04/20 08:01:47;;;;;;;19.15;10.77;;;23.60;41.10;;;;;;6203365;27;83070;-64
2021/04/20 08:04:47;;;;;;;19.77;11.10;;;23.60;41.30;;;;;;6203059;28;83718;-65
2021/04/20 08:07:48;;;;;;;17.55;10.80;;;23.60;41.40;;;;;;6206959;28;84170;-64
2021/04/20 08:10:49;;;;;;;17.00;11.13;;;23.60;41.00;;;;;;6192830;28;83213;-64
2021/04/20 08:13:49;;;;;;;17.58;11.00;;;23.60;41.00;;;;;;6221869;27;83362;-65
2021/04/20 08:16:50;;;;;;;19.30;12.25;;;23.60;41.10;;;;;;6206878;28;84165;-65
2021/04/20 08:19:50;;;;;;;16.67;10.40;;;23.60;40.90;;;;;;6214163;28;85685;-65
2021/04/20 08:22:51;;;;;;;15.45;10.65;;;23.60;40.80;;;;;;6208829;28;84381;-65
2021/04/20 08:25:51;;;;;;;18.98;10.43;;;23.60;40.90;;;;;;6195258;28;83538;-64
2021/04/20 08:28:52;;;;;;;16.42;10.85;;;23.60;40.90;;;;;;6210506;28;83040;-66
2021/04/20 08:31:52;;;;;;;17.35;10.50;;;23.60;41.00;;;;;;6200532;27;83167;-65
2021/04/20 08:34:53;;;;;;;21.35;11.68;;;23.60;41.00;;;;;;6207713;28;83784;-65
2021/04/20 08:37:54;;;;;;;18.20;10.65;;;23.70;41.00;;;;;;6207034;27;83024;-63
2021/04/20 08:40:54;;;;;;;16.10;10.68;;;23.60;40.90;;;;;;6218685;28;83984;-65
2021/04/20 08:43:55;;;;;;;19.02;11.27;;;23.70;41.30;;;;;;6223469;27;83181;-64
2021/04/20 08:46:56;;;;;;;22.58;11.02;;;23.60;41.30;;;;;;6208036;28;86049;-65
2021/04/20 08:49:57;;;;;;;18.70;10.70;;;23.60;40.90;;;;;;6204481;27;84118;-64
2021/04/20 08:52:57;;;;;;;16.20;9.88;;;23.70;41.00;;;;;;6222368;28;86640;-64
2021/04/20 08:55:58;;;;;;;17.13;9.75;;;23.70;41.00;;;;;;6209004;27;82849;-64
2021/04/20 08:58:58;;;;;;;17.30;10.32;;;23.60;41.10;;;;;;6225172;28;80069;-65
2021/04/20 09:01:59;;;;;;;17.75;10.63;;;23.60;41.10;;;;;;6207081;27;83764;-65
2021/04/20 09:04:59;;;;;;;18.95;10.50;;;23.60;41.10;;;;;;6205336;28;82892;-64
2021/04/20 09:08:00;;;;;;;17.00;9.68;;;23.60;40.90;;;;;;6199905;27;83274;-66
2021/04/20 09:11:00;;;;;;;16.85;10.32;;;23.70;41.10;;;;;;6223353;28;83823;-66
2021/04/20 09:14:01;;;;;;;13.50;9.00;;;23.60;41.10;;;;;;6197867;27;83275;-65
2021/04/20 09:17:02;;;;;;;13.75;8.68;;;23.60;41.10;;;;;;6201431;28;83950;-65
2021/04/20 09:20:03;;;;;;;13.10;8.80;;;23.70;41.00;;;;;;6226813;28;84371;-64
2021/04/20 09:23:03;;;;;;;12.93;8.55;;;23.70;41.00;;;;;;6211687;27;80332;-65
2021/04/20 09:26:04;;;;;;;15.73;9.07;;;23.70;41.30;;;;;;6204462;28;81422;-65
2021/04/20 09:29:04;;;;;;;12.25;8.18;;;23.70;41.00;;;;;;6205369;28;80396;-66
2021/04/20 09:32:05;;;;;;;16.90;10.40;;;23.70;41.20;;;;;;6205865;28;80469;-66
2021/04/20 09:35:05;;;;;;;18.45;11.23;;;23.70;41.00;;;;;;6196011;28;83563;-68
2021/04/20 09:38:06;;;;;;;17.60;11.20;;;23.70;41.30;;;;;;6200516;28;83336;-66
2021/04/20 09:41:06;;;;;;;21.38;11.07;;;23.80;41.30;;;;;;6199552;28;83458;-65
2021/04/20 09:44:07;;;;;;;16.48;10.82;;;23.80;41.70;;;;;;6218077;27;83332;-66
2021/04/20 09:47:08;;;;;;;19.00;11.10;;;23.80;42.10;;;;;;6201013;28;85452;-67
2021/04/20 09:50:08;;;;;;;15.27;10.05;;;23.80;42.00;;;;;;6201047;28;83810;-67
2021/04/20 09:53:09;;;;;;;13.85;9.20;;;23.80;41.60;;;;;;6204982;28;83660;-66
2021/04/20 09:56:09;;;;;;;14.93;9.07;;;23.80;41.60;;;;;;6218895;27;82899;-65
2021/04/20 09:59:10;;;;;;;17.90;10.10;;;23.80;41.30;;;;;;6225858;28;81118;-66
2021/04/20 10:02:11;;;;;;;15.43;9.55;;;23.80;41.30;;;;;;6222296;28;82874;-66
2021/04/20 10:05:13;;;;;;;14.32;8.95;;;23.80;41.20;;;;;;6220900;28;81774;-66
2021/04/20 10:08:15;;;;;;;11.60;8.43;;;23.80;41.40;;;;;;6204276;27;80475;-66
2021/04/20 10:11:16;;;;;;;14.77;8.80;;;23.70;41.10;;;;;;6205259;28;80986;-63
2021/04/20 10:14:18;;;;;;;16.50;8.77;;;23.70;41.30;;;;;;6203421;28;83763;-62
2021/04/20 10:17:18;;;;;;;13.20;8.73;;;23.80;41.20;;;;;;6191159;28;80439;-64
2021/04/20 10:20:19;;;;;;;12.15;8.13;;;23.70;41.40;;;;;;6200344;28;81443;-64
2021/04/20 10:23:20;;;;;;;12.60;7.63;;;23.80;40.90;;;;;;6199687;28;80614;-64
2021/04/20 10:26:21;;;;;;;10.43;7.15;;;23.80;40.80;;;;;;6187303;28;80137;-64
2021/04/20 10:29:22;;;;;;;12.73;7.82;;;23.80;40.80;;;;;;6204104;28;86458;-63
2021/04/20 10:32:22;;;;;;;10.82;7.68;;;23.80;40.90;;;;;;6225426;28;80667;-64
2021/04/20 10:35:23;;;;;;;11.43;7.20;;;23.80;40.80;;;;;;6202634;28;80430;-64
2021/04/20 10:38:23;;;;;;;10.70;6.95;;;23.80;40.70;;;;;;6195326;28;80344;-64
2021/04/20 10:41:24;;;;;;;11.02;6.60;;;23.80;40.70;;;;;;6201294;28;81838;-64
2021/04/20 10:44:24;;;;;;;12.50;6.90;;;23.80;40.90;;;;;;6201887;28;80248;-63
2021/04/20 10:47:25;;;;;;;10.00;6.85;;;23.80;40.80;;;;;;6201681;28;80875;-64
2021/04/20 10:50:25;;;;;;;8.48;6.22;;;23.80;41.10;;;;;;6221954;28;80920;-66
2021/04/20 10:53:26;;;;;;;10.05;6.70;;;23.80;41.10;;;;;;6208165;27;80957;-63
2021/04/20 10:56:27;;;;;;;8.95;6.10;;;23.80;41.40;;;;;;6204149;28;80652;-65
2021/04/20 10:59:27;;;;;;;12.75;6.78;;;23.80;41.30;;;;;;6208089;27;83308;-63
2021/04/20 11:02:28;;;;;;;10.18;6.70;;;23.80;41.50;;;;;;6206900;28;83568;-65
2021/04/20 11:05:30;;;;;;;8.48;5.80;;;23.70;41.40;;;;;;6198366;28;81532;-64
2021/04/20 11:08:30;;;;;;;12.07;5.95;;;23.80;41.40;;;;;;6194570;28;80359;-64
2021/04/20 11:11:30;;;;;;;7.38;5.80;;;23.80;41.30;;;;;;6205682;28;81492;-64
2021/04/20 11:14:31;;;;;;;10.30;5.80;;;23.80;41.40;;;;;;6191842;27;81216;-65
2021/04/20 11:17:32;;;;;;;11.48;6.35;;;23.80;41.20;;;;;;6215527;28;84471;-65
2021/04/20 11:20:32;;;;;;;8.32;6.00;;;23.80;41.20;;;;;;6213861;28;81306;-65
2021/04/20 11:23:33;;;;;;;9.85;5.10;;;23.80;41.10;;;;;;6226866;27;80455;-65
2021/04/20 11:26:34;;;;;;;9.95;5.63;;;23.80;41.50;;;;;;6222317;28;81565;-64
2021/04/20 11:29:34;;;;;;;10.27;5.55;;;23.80;41.50;;;;;;6195830;28;83187;-66
2021/04/20 11:32:35;;;;;;;8.35;5.28;;;23.80;41.30;;;;;;6202102;28;80823;-65
2021/04/20 11:35:35;;;;;;;9.00;5.70;;;23.80;41.20;;;;;;6206841;28;80355;-65
2021/04/20 11:38:36;;;;;;;8.77;5.15;;;23.80;41.20;;;;;;6201164;27;81159;-66
2021/04/20 11:41:36;;;;;;;8.23;5.60;;;23.80;41.10;;;;;;6196286;28;82719;-66
2021/04/20 11:44:37;;;;;;;9.75;5.43;;;23.80;40.70;;;;;;6226000;27;81768;-66
2021/04/20 11:47:38;;;;;;;7.10;5.05;;;23.80;41.20;;;;;;6200457;28;80379;-66
2021/04/20 11:50:38;;;;;;;10.20;5.68;;;23.80;40.80;;;;;;6207169;28;80427;-65
2021/04/20 11:53:39;;;;;;;8.25;4.75;;;23.80;40.80;;;;;;6226567;28;81593;-66
2021/04/20 11:56:39;;;;;;;10.80;5.45;;;23.80;40.80;;;;;;6241865;28;80534;-66
2021/04/20 11:59:40;;;;;;;16.23;5.75;;;23.80;41.00;;;;;;6224537;28;81016;-66
2021/04/20 12:02:40;;;;;;;11.52;5.28;;;23.80;40.80;;;;;;6225512;28;80134;-66
2021/04/20 12:05:41;;;;;;;12.55;5.55;;;23.80;41.00;;;;;;6210791;28;80422;-68
2021/04/20 12:08:41;;;;;;;14.02;5.80;;;23.80;41.20;;;;;;6229916;27;84083;-67
2021/04/20 12:11:43;;;;;;;13.52;5.15;;;23.80;40.80;;;;;;6207676;27;80863;-67
2021/04/20 12:14:48;;;;;;;;;;;23.80;40.50;;;;;;6219663;28;80604;-66
2021/04/20 12:17:49;;;;;;;9.50;5.47;;;23.90;40.70;;;;;;6211629;28;80350;-68
2021/04/20 12:20:50;;;;;;;11.65;5.28;;;23.90;40.50;;;;;;6204773;28;81140;-68
2021/04/20 12:23:50;;;;;;;9.32;4.25;;;23.90;40.90;;;;;;6210682;28;81410;-69
2021/04/20 12:26:51;;;;;;;9.00;4.57;;;23.90;41.30;;;;;;6230287;27;80790;-68
2021/04/20 12:29:51;;;;;;;6.90;4.03;;;23.80;41.30;;;;;;6228440;28;86738;-69
2021/04/20 12:32:52;;;;;;;4.53;3.45;;;23.80;41.30;;;;;;6226822;28;80636;-68
2021/04/20 12:35:53;;;;;;;7.43;4.07;;;23.80;41.40;;;;;;6210177;28;83239;-67
2021/04/20 12:38:53;;;;;;;7.97;4.50;;;23.80;40.80;;;;;;6226945;28;81180;-67
2021/04/20 12:41:54;;;;;;;6.05;3.53;;;23.90;40.70;;;;;;6227187;28;81625;-67
2021/04/20 12:44:56;;;;;;;4.43;3.53;;;23.90;40.80;;;;;;6205430;27;81598;-68
2021/04/20 12:47:56;;;;;;;5.68;4.05;;;23.80;41.20;;;;;;6194541;28;81585;-66
2021/04/20 12:50:57;;;;;;;6.07;3.90;;;23.80;40.90;;;;;;6196651;28;80567;-67
2021/04/20 12:53:57;;;;;;;6.13;3.75;;;23.80;41.00;;;;;;6207983;27;80312;-67
2021/04/20 12:56:58;;;;;;;5.32;3.33;;;23.80;41.30;;;;;;6229149;27;81963;-66
2021/04/20 12:59:59;;;;;;;8.60;3.50;;;23.80;41.20;;;;;;6228145;28;80625;-66
2021/04/20 13:02:59;;;;;;;5.35;3.25;;;23.80;41.30;;;;;;6222158;28;80622;-66
2021/04/20 13:06:00;;;;;;;5.25;2.60;;;23.80;41.20;;;;;;6201145;28;80984;-66
2021/04/20 13:09:00;;;;;;;4.32;2.63;;;23.80;41.20;;;;;;6211032;28;80565;-65
2021/04/20 13:12:01;;;;;;;4.95;2.72;;;23.70;40.70;;;;;;6220246;27;80507;-65
2021/04/20 13:15:02;;;;;;;4.50;2.53;;;23.70;41.00;;;;;;6197755;28;80513;-62
2021/04/20 13:18:03;;;;;;;5.22;2.72;;;23.70;40.80;;;;;;6204605;28;80404;-65
2021/04/20 13:21:03;;;;;;;3.90;2.50;;;23.70;40.80;;;;;;6198638;28;80905;-66
2021/04/20 13:24:04;;;;;;;8.15;2.63;;;23.70;41.30;;;;;;6202227;28;82533;-63
2021/04/20 13:27:04;;;;;;;3.38;2.25;;;23.70;41.10;;;;;;6182528;27;81190;-64
2021/04/20 13:30:05;;;;;;;5.15;2.30;;;23.70;41.80;;;;;;6206090;27;80673;-65
2021/04/20 13:33:05;;;;;;;6.35;2.30;;;23.70;41.70;;;;;;6195799;27;80507;-66
2021/04/20 13:36:06;;;;;;;4.05;2.45;;;23.80;41.60;;;;;;6212976;28;80814;-65
2021/04/20 13:39:06;;;;;;;3.90;2.33;;;23.80;41.60;;;;;;6213563;28;80262;-66
2021/04/20 13:42:07;;;;;;;8.85;2.72;;;23.80;42.10;;;;;;6205779;27;81154;-66
2021/04/20 13:45:07;;;;;;;5.03;2.92;;;23.80;41.80;;;;;;6200755;28;81059;-64
2021/04/20 13:48:08;;;;;;;8.93;2.63;;;23.80;41.80;;;;;;6203289;27;81803;-65
2021/04/20 13:51:09;;;;;;;4.50;2.60;;;23.80;42.20;;;;;;6204389;27;81184;-66
2021/04/20 13:54:09;;;;;;;3.78;2.53;;;23.80;42.30;;;;;;6205342;27;80889;-67
2021/04/20 13:57:10;;;;;;;4.82;2.90;;;23.80;42.40;;;;;;6206423;28;80386;-64
2021/04/20 14:00:10;;;;;;;3.03;2.45;;;23.90;43.00;;;;;;6200685;27;80710;-66
2021/04/20 14:03:11;;;;;;;4.63;3.00;;;23.80;43.00;;;;;;6228725;27;81106;-65
2021/04/20 14:06:11;;;;;;;4.68;3.00;;;23.80;43.30;;;;;;6214742;27;81055;-64
2021/04/20 14:09:13;;;;;;;4.85;2.90;;;23.90;42.90;;;;;;6207433;28;84015;-65
2021/04/20 14:12:14;;;;;;;4.80;3.00;;;23.90;43.20;;;;;;6207260;28;81752;-64
2021/04/20 14:15:15;;;;;;;7.85;3.33;;;23.90;43.40;;;;;;6214678;28;80858;-63
2021/04/20 14:18:16;;;;;;;7.05;3.22;;;23.90;43.10;;;;;;6206771;28;80429;-64
2021/04/20 14:21:19;;;;;;;5.72;3.05;;;23.90;43.30;;;;;;6212620;28;81156;-64
2021/04/20 14:24:21;;;;;;;6.57;3.28;;;23.80;43.30;;;;;;6241639;27;80283;-64
2021/04/20 14:27:21;;;;;;;5.57;2.60;;;23.90;43.90;;;;;;6203564;28;80347;-63
2021/04/20 14:30:22;;;;;;;4.20;2.72;;;23.90;43.20;;;;;;6225174;27;80775;-64
2021/04/20 14:33:22;;;;;;;4.18;2.65;;;23.90;43.70;;;;;;6210283;28;80603;-64
2021/04/20 14:36:23;;;;;;;5.63;2.97;;;23.90;43.00;;;;;;6205242;27;82523;-63
2021/04/20 14:39:23;;;;;;;5.55;2.95;;;23.90;43.10;;;;;;6204560;28;80338;-65
2021/04/20 14:42:24;;;;;;;5.18;2.78;;;23.90;43.00;;;;;;6203240;28;80156;-64
2021/04/20 14:45:25;;;;;;;5.35;2.30;;;23.90;42.80;;;;;;6214686;28;80461;-64
2021/04/20 14:48:25;;;;;;;5.00;2.88;;;23.90;42.30;;;;;;6218413;28;80730;-64
2021/04/20 14:51:26;;;;;;;4.65;2.67;;;23.90;42.60;;;;;;6201045;28;80628;-64
2021/04/20 14:54:26;;;;;;;5.63;2.33;;;23.90;42.20;;;;;;6205907;28;80174;-66
2021/04/20 14:57:27;;;;;;;4.13;2.40;;;23.90;42.30;;;;;;6202514;28;82277;-64
2021/04/20 15:00:27;;;;;;;4.40;2.55;;;23.90;41.90;;;;;;6199939;28;80491;-64
2021/04/20 15:03:28;;;;;;;2.63;1.92;;;23.90;41.80;;;;;;6201264;28;81011;-64
2021/04/20 15:06:28;;;;;;;2.63;2.40;;;23.90;41.60;;;;;;6212449;28;80448;-64
2021/04/20 15:09:29;;;;;;;2.80;1.92;;;23.90;41.50;;;;;;6200601;28;81765;-63
2021/04/20 15:12:30;;;;;;;3.10;2.13;;;23.90;41.50;;;;;;6198697;28;81473;-63
2021/04/20 15:15:30;;;;;;;4.95;2.38;;;23.90;41.50;;;;;;6208781;27;80487;-63
2021/04/20 15:18:31;;;;;;;3.22;2.10;;;23.90;41.90;;;;;;6215078;28;80866;-64
2021/04/20 15:21:31;;;;;;;4.03;2.38;;;23.90;42.10;;;;;;6203590;27;80459;-64
2021/04/20 15:24:32;;;;;;;2.85;2.38;;;23.90;41.70;;;;;;6202079;28;80975;-64
2021/04/20 15:27:32;;;;;;;3.45;1.90;;;23.90;41.60;;;;;;6206457;27;80483;-64